sensor_id;sensor_type;location;lat;lon;timestamp;P1;durP1;ratioP1;P2;durP2;ratioP2
56477;SDS011;42382;53.210;5.772;2024-02-14T00:01:54;12.93;;;8.23;;
56477;SDS011;42382;53.210;5.772;2024-02-14T00:04:20;14.02;;;8.38;;
56477;SDS011;42382;53.210;5.772;2024-02-14T00:06:46;16.42;;;8.73;;
56477;SDS011;42382;53.210;5.772;2024-02-14T00:09:12;12.57;;;8.23;;
56477;SDS011;42382;53.210;5.772;2024-02-14T00:11:38;12.55;;;8.05;;
56477;SDS011;42382;53.210;5.772;2024-02-14T00:14:03;11.25;;;7.97;;
56477;SDS011;42382;53.210;5.772;2024-02-14T00:16:29;14.98;;;8.90;;
56477;SDS011;42382;53.210;5.772;2024-02-14T00:18:57;13.65;;;8.63;;
56477;SDS011;42382;53.210;5.772;2024-02-14T00:21:23;11.18;;;8.13;;
56477;SDS011;42382;53.210;5.772;2024-02-14T00:23:49;10.30;;;7.53;;
56477;SDS011;42382;53.210;5.772;2024-02-14T00:26:15;10.60;;;7.45;;
56477;SDS011;42382;53.210;5.772;2024-02-14T00:28:41;11.50;;;8.35;;
56477;SDS011;42382;53.210;5.772;2024-02-14T00:31:07;11.65;;;9.18;;
56477;SDS011;42382;53.210;5.772;2024-02-14T00:33:32;11.27;;;8.02;;
56477;SDS011;42382;53.210;5.772;2024-02-14T00:35:58;10.73;;;7.78;;
56477;SDS011;42382;53.210;5.772;2024-02-14T00:38:23;11.18;;;7.80;;
56477;SDS011;42382;53.210;5.772;2024-02-14T00:40:49;13.00;;;8.55;;
56477;SDS011;42382;53.210;5.772;2024-02-14T00:43:15;11.93;;;8.07;;
56477;SDS011;42382;53.210;5.772;2024-02-14T00:45:40;11.30;;;8.20;;
56477;SDS011;42382;53.210;5.772;2024-02-14T00:48:06;11.30;;;8.13;;
56477;SDS011;42382;53.210;5.772;2024-02-14T00:50:32;12.48;;;8.98;;
56477;SDS011;42382;53.210;5.772;2024-02-14T00:52:58;10.73;;;8.95;;
56477;SDS011;42382;53.210;5.772;2024-02-14T00:55:24;11.90;;;8.75;;
56477;SDS011;42382;53.210;5.772;2024-02-14T00:57:50;11.07;;;8.50;;
56477;SDS011;42382;53.210;5.772;2024-02-14T01:00:16;13.40;;;9.38;;
56477;SDS011;42382;53.210;5.772;2024-02-14T01:02:42;11.25;;;8.77;;
56477;SDS011;42382;53.210;5.772;2024-02-14T01:05:08;10.27;;;8.52;;
56477;SDS011;42382;53.210;5.772;2024-02-14T01:07:34;14.75;;;9.63;;
56477;SDS011;42382;53.210;5.772;2024-02-14T01:10:00;14.65;;;9.55;;
56477;SDS011;42382;53.210;5.772;2024-02-14T01:12:26;12.68;;;9.02;;
56477;SDS011;42382;53.210;5.772;2024-02-14T01:14:53;12.40;;;9.55;;
56477;SDS011;42382;53.210;5.772;2024-02-14T01:17:19;14.63;;;9.25;;
56477;SDS011;42382;53.210;5.772;2024-02-14T01:19:44;10.70;;;8.20;;
56477;SDS011;42382;53.210;5.772;2024-02-14T01:22:10;11.50;;;9.05;;
56477;SDS011;42382;53.210;5.772;2024-02-14T01:24:36;10.88;;;8.85;;
56477;SDS011;42382;53.210;5.772;2024-02-14T01:27:03;12.55;;;11.02;;
56477;SDS011;42382;53.210;5.772;2024-02-14T01:29:29;12.98;;;9.55;;
56477;SDS011;42382;53.210;5.772;2024-02-14T01:31:54;13.50;;;9.80;;
56477;SDS011;42382;53.210;5.772;2024-02-14T01:34:20;13.65;;;10.38;;
56477;SDS011;42382;53.210;5.772;2024-02-14T01:36:47;13.20;;;9.32;;
56477;SDS011;42382;53.210;5.772;2024-02-14T01:39:13;12.10;;;9.30;;
56477;SDS011;42382;53.210;5.772;2024-02-14T01:41:38;13.40;;;9.32;;
56477;SDS011;42382;53.210;5.772;2024-02-14T01:44:10;12.93;;;9.25;;
56477;SDS011;42382;53.210;5.772;2024-02-14T01:46:36;14.05;;;10.18;;
56477;SDS011;42382;53.210;5.772;2024-02-14T01:49:02;13.65;;;10.05;;
56477;SDS011;42382;53.210;5.772;2024-02-14T01:51:28;12.32;;;10.10;;
56477;SDS011;42382;53.210;5.772;2024-02-14T01:53:56;13.13;;;9.90;;
56477;SDS011;42382;53.210;5.772;2024-02-14T01:56:21;13.90;;;9.98;;
56477;SDS011;42382;53.210;5.772;2024-02-14T01:58:47;14.10;;;10.45;;
56477;SDS011;42382;53.210;5.772;2024-02-14T02:01:13;14.38;;;11.15;;
56477;SDS011;42382;53.210;5.772;2024-02-14T02:03:39;14.13;;;10.32;;
56477;SDS011;42382;53.210;5.772;2024-02-14T02:06:05;13.85;;;10.18;;
56477;SDS011;42382;53.210;5.772;2024-02-14T02:08:31;14.95;;;10.63;;
56477;SDS011;42382;53.210;5.772;2024-02-14T02:10:58;14.88;;;10.30;;
56477;SDS011;42382;53.210;5.772;2024-02-14T02:13:24;15.00;;;10.70;;
56477;SDS011;42382;53.210;5.772;2024-02-14T02:15:51;16.40;;;10.77;;
56477;SDS011;42382;53.210;5.772;2024-02-14T02:18:19;14.45;;;10.95;;
56477;SDS011;42382;53.210;5.772;2024-02-14T02:20:45;16.75;;;11.40;;
56477;SDS011;42382;53.210;5.772;2024-02-14T02:23:11;14.73;;;11.00;;
56477;SDS011;42382;53.210;5.772;2024-02-14T02:25:40;17.20;;;11.25;;
56477;SDS011;42382;53.210;5.772;2024-02-14T02:28:06;17.00;;;11.60;;
56477;SDS011;42382;53.210;5.772;2024-02-14T02:30:33;20.35;;;11.77;;
56477;SDS011;42382;53.210;5.772;2024-02-14T02:33:00;18.40;;;11.88;;
56477;SDS011;42382;53.210;5.772;2024-02-14T02:35:27;16.45;;;11.25;;
56477;SDS011;42382;53.210;5.772;2024-02-14T02:37:53;15.35;;;11.15;;
56477;SDS011;42382;53.210;5.772;2024-02-14T02:40:19;15.90;;;10.68;;
56477;SDS011;42382;53.210;5.772;2024-02-14T02:42:46;17.40;;;11.15;;
56477;SDS011;42382;53.210;5.772;2024-02-14T02:45:12;16.90;;;10.90;;
56477;SDS011;42382;53.210;5.772;2024-02-14T02:47:38;16.27;;;11.63;;
56477;SDS011;42382;53.210;5.772;2024-02-14T02:50:05;18.00;;;11.65;;
56477;SDS011;42382;53.210;5.772;2024-02-14T02:52:31;19.67;;;12.15;;
56477;SDS011;42382;53.210;5.772;2024-02-14T02:54:56;19.48;;;12.00;;
56477;SDS011;42382;53.210;5.772;2024-02-14T02:57:22;15.82;;;10.35;;
56477;SDS011;42382;53.210;5.772;2024-02-14T02:59:48;16.10;;;11.23;;
56477;SDS011;42382;53.210;5.772;2024-02-14T03:02:14;12.82;;;9.73;;
56477;SDS011;42382;53.210;5.772;2024-02-14T03:04:40;16.70;;;10.73;;
56477;SDS011;42382;53.210;5.772;2024-02-14T03:07:08;17.60;;;10.52;;
56477;SDS011;42382;53.210;5.772;2024-02-14T03:09:34;16.55;;;10.18;;
56477;SDS011;42382;53.210;5.772;2024-02-14T03:12:01;17.75;;;10.93;;
56477;SDS011;42382;53.210;5.772;2024-02-14T03:14:31;15.77;;;9.48;;
56477;SDS011;42382;53.210;5.772;2024-02-14T03:16:58;13.00;;;8.65;;
56477;SDS011;42382;53.210;5.772;2024-02-14T03:19:24;13.25;;;7.68;;
56477;SDS011;42382;53.210;5.772;2024-02-14T03:21:52;13.90;;;8.65;;
56477;SDS011;42382;53.210;5.772;2024-02-14T03:24:18;16.02;;;7.82;;
56477;SDS011;42382;53.210;5.772;2024-02-14T03:26:43;10.27;;;6.38;;
56477;SDS011;42382;53.210;5.772;2024-02-14T03:29:09;9.27;;;6.18;;
56477;SDS011;42382;53.210;5.772;2024-02-14T03:31:35;14.35;;;6.90;;
56477;SDS011;42382;53.210;5.772;2024-02-14T03:34:01;11.45;;;6.22;;
56477;SDS011;42382;53.210;5.772;2024-02-14T03:36:27;13.80;;;7.05;;
56477;SDS011;42382;53.210;5.772;2024-02-14T03:38:58;12.43;;;6.55;;
56477;SDS011;42382;53.210;5.772;2024-02-14T03:41:29;11.50;;;5.80;;
56477;SDS011;42382;53.210;5.772;2024-02-14T03:43:54;15.27;;;6.13;;
56477;SDS011;42382;53.210;5.772;2024-02-14T03:46:23;15.73;;;5.80;;
56477;SDS011;42382;53.210;5.772;2024-02-14T03:48:49;14.00;;;5.55;;
56477;SDS011;42382;53.210;5.772;2024-02-14T03:51:15;14.50;;;5.32;;
56477;SDS011;42382;53.210;5.772;2024-02-14T03:53:41;17.83;;;5.57;;
56477;SDS011;42382;53.210;5.772;2024-02-14T03:56:07;11.50;;;4.95;;
56477;SDS011;42382;53.210;5.772;2024-02-14T03:58:32;13.98;;;5.13;;
56477;SDS011;42382;53.210;5.772;2024-02-14T04:01:02;14.25;;;5.68;;
56477;SDS011;42382;53.210;5.772;2024-02-14T04:03:30;15.73;;;5.75;;
56477;SDS011;42382;53.210;5.772;2024-02-14T04:05:56;17.58;;;5.60;;
56477;SDS011;42382;53.210;5.772;2024-02-14T04:08:22;20.85;;;6.70;;
56477;SDS011;42382;53.210;5.772;2024-02-14T04:10:49;19.90;;;6.75;;
56477;SDS011;42382;53.210;5.772;2024-02-14T04:13:19;17.02;;;6.00;;
56477;SDS011;42382;53.210;5.772;2024-02-14T04:15:45;21.85;;;6.43;;
56477;SDS011;42382;53.210;5.772;2024-02-14T04:18:12;22.45;;;6.25;;
56477;SDS011;42382;53.210;5.772;2024-02-14T04:20:39;17.63;;;5.50;;
56477;SDS011;42382;53.210;5.772;2024-02-14T04:23:06;17.85;;;6.35;;
56477;SDS011;42382;53.210;5.772;2024-02-14T04:25:32;20.63;;;6.40;;
56477;SDS011;42382;53.210;5.772;2024-02-14T04:27:59;28.50;;;6.68;;
56477;SDS011;42382;53.210;5.772;2024-02-14T04:30:25;28.08;;;6.90;;
56477;SDS011;42382;53.210;5.772;2024-02-14T04:32:50;35.05;;;7.70;;
56477;SDS011;42382;53.210;5.772;2024-02-14T04:35:17;30.42;;;8.07;;
56477;SDS011;42382;53.210;5.772;2024-02-14T04:37:44;28.55;;;6.88;;
56477;SDS011;42382;53.210;5.772;2024-02-14T04:40:11;29.30;;;7.38;;
56477;SDS011;42382;53.210;5.772;2024-02-14T04:42:37;27.42;;;7.75;;
56477;SDS011;42382;53.210;5.772;2024-02-14T04:45:03;35.22;;;7.82;;
56477;SDS011;42382;53.210;5.772;2024-02-14T04:47:29;39.05;;;7.97;;
56477;SDS011;42382;53.210;5.772;2024-02-14T04:49:55;42.70;;;9.07;;
56477;SDS011;42382;53.210;5.772;2024-02-14T04:52:21;41.72;;;8.65;;
56477;SDS011;42382;53.210;5.772;2024-02-14T04:54:47;34.28;;;8.07;;
56477;SDS011;42382;53.210;5.772;2024-02-14T04:57:12;40.83;;;8.13;;
56477;SDS011;42382;53.210;5.772;2024-02-14T04:59:38;47.25;;;9.38;;
56477;SDS011;42382;53.210;5.772;2024-02-14T05:02:04;53.95;;;7.75;;
56477;SDS011;42382;53.210;5.772;2024-02-14T05:04:29;30.73;;;6.78;;
56477;SDS011;42382;53.210;5.772;2024-02-14T05:06:56;35.17;;;6.70;;
56477;SDS011;42382;53.210;5.772;2024-02-14T05:09:22;36.20;;;7.00;;
56477;SDS011;42382;53.210;5.772;2024-02-14T05:11:47;32.72;;;6.43;;
56477;SDS011;42382;53.210;5.772;2024-02-14T05:14:13;33.35;;;5.97;;
56477;SDS011;42382;53.210;5.772;2024-02-14T05:16:39;33.60;;;6.22;;
56477;SDS011;42382;53.210;5.772;2024-02-14T05:19:05;34.65;;;7.20;;
56477;SDS011;42382;53.210;5.772;2024-02-14T05:21:31;47.67;;;7.18;;
56477;SDS011;42382;53.210;5.772;2024-02-14T05:23:56;52.13;;;7.95;;
56477;SDS011;42382;53.210;5.772;2024-02-14T05:26:22;57.63;;;8.82;;
56477;SDS011;42382;53.210;5.772;2024-02-14T05:28:48;58.42;;;8.88;;
56477;SDS011;42382;53.210;5.772;2024-02-14T05:31:14;65.18;;;8.95;;
56477;SDS011;42382;53.210;5.772;2024-02-14T05:33:41;60.85;;;7.85;;
56477;SDS011;42382;53.210;5.772;2024-02-14T05:36:08;62.53;;;8.35;;
56477;SDS011;42382;53.210;5.772;2024-02-14T05:38:33;62.80;;;7.18;;
56477;SDS011;42382;53.210;5.772;2024-02-14T05:40:59;57.63;;;7.88;;
56477;SDS011;42382;53.210;5.772;2024-02-14T05:43:25;61.38;;;7.45;;
56477;SDS011;42382;53.210;5.772;2024-02-14T05:45:51;54.88;;;6.63;;
56477;SDS011;42382;53.210;5.772;2024-02-14T05:48:16;65.70;;;7.07;;
56477;SDS011;42382;53.210;5.772;2024-02-14T05:50:42;52.78;;;6.40;;
56477;SDS011;42382;53.210;5.772;2024-02-14T05:53:08;51.85;;;6.95;;
56477;SDS011;42382;53.210;5.772;2024-02-14T05:55:33;53.83;;;6.55;;
56477;SDS011;42382;53.210;5.772;2024-02-14T05:57:59;64.55;;;7.45;;
56477;SDS011;42382;53.210;5.772;2024-02-14T06:00:25;70.97;;;8.10;;
56477;SDS011;42382;53.210;5.772;2024-02-14T06:02:51;53.60;;;7.97;;
56477;SDS011;42382;53.210;5.772;2024-02-14T06:05:17;59.45;;;7.22;;
56477;SDS011;42382;53.210;5.772;2024-02-14T06:07:43;60.20;;;7.65;;
56477;SDS011;42382;53.210;5.772;2024-02-14T06:10:12;57.83;;;7.75;;
56477;SDS011;42382;53.210;5.772;2024-02-14T06:12:37;67.75;;;8.68;;
56477;SDS011;42382;53.210;5.772;2024-02-14T06:15:05;60.47;;;7.00;;
56477;SDS011;42382;53.210;5.772;2024-02-14T06:17:32;66.65;;;7.00;;
56477;SDS011;42382;53.210;5.772;2024-02-14T06:19:58;63.22;;;6.95;;
56477;SDS011;42382;53.210;5.772;2024-02-14T06:22:25;57.60;;;7.32;;
56477;SDS011;42382;53.210;5.772;2024-02-14T06:24:50;58.05;;;7.47;;
56477;SDS011;42382;53.210;5.772;2024-02-14T06:27:16;54.63;;;6.57;;
56477;SDS011;42382;53.210;5.772;2024-02-14T06:29:42;65.07;;;7.72;;
56477;SDS011;42382;53.210;5.772;2024-02-14T06:32:08;57.70;;;7.10;;
56477;SDS011;42382;53.210;5.772;2024-02-14T06:34:34;49.55;;;5.75;;
56477;SDS011;42382;53.210;5.772;2024-02-14T06:37:00;66.85;;;7.85;;
56477;SDS011;42382;53.210;5.772;2024-02-14T06:39:25;66.82;;;9.00;;
56477;SDS011;42382;53.210;5.772;2024-02-14T06:41:51;65.00;;;8.13;;
56477;SDS011;42382;53.210;5.772;2024-02-14T06:44:16;64.28;;;7.47;;
56477;SDS011;42382;53.210;5.772;2024-02-14T06:46:43;62.38;;;7.50;;
56477;SDS011;42382;53.210;5.772;2024-02-14T06:49:09;71.15;;;8.80;;
56477;SDS011;42382;53.210;5.772;2024-02-14T06:51:34;81.10;;;8.02;;
56477;SDS011;42382;53.210;5.772;2024-02-14T06:54:00;71.20;;;7.65;;
56477;SDS011;42382;53.210;5.772;2024-02-14T06:56:25;61.70;;;7.07;;
56477;SDS011;42382;53.210;5.772;2024-02-14T06:58:51;66.13;;;7.63;;
56477;SDS011;42382;53.210;5.772;2024-02-14T07:01:20;59.35;;;6.38;;
56477;SDS011;42382;53.210;5.772;2024-02-14T07:03:48;67.50;;;7.55;;
56477;SDS011;42382;53.210;5.772;2024-02-14T07:06:14;65.60;;;7.43;;
56477;SDS011;42382;53.210;5.772;2024-02-14T07:08:43;55.38;;;6.93;;
56477;SDS011;42382;53.210;5.772;2024-02-14T07:11:08;63.15;;;7.60;;
56477;SDS011;42382;53.210;5.772;2024-02-14T07:13:34;74.38;;;7.47;;
56477;SDS011;42382;53.210;5.772;2024-02-14T07:15:59;70.18;;;6.85;;
56477;SDS011;42382;53.210;5.772;2024-02-14T07:18:25;53.53;;;7.38;;
56477;SDS011;42382;53.210;5.772;2024-02-14T07:20:51;71.95;;;7.90;;
56477;SDS011;42382;53.210;5.772;2024-02-14T07:23:18;61.53;;;6.68;;
56477;SDS011;42382;53.210;5.772;2024-02-14T07:25:44;52.75;;;6.93;;
56477;SDS011;42382;53.210;5.772;2024-02-14T07:28:10;47.72;;;5.88;;
56477;SDS011;42382;53.210;5.772;2024-02-14T07:30:35;60.60;;;6.47;;
56477;SDS011;42382;53.210;5.772;2024-02-14T07:33:01;71.40;;;8.25;;
56477;SDS011;42382;53.210;5.772;2024-02-14T07:35:26;55.25;;;6.47;;
56477;SDS011;42382;53.210;5.772;2024-02-14T07:37:52;60.80;;;6.57;;
56477;SDS011;42382;53.210;5.772;2024-02-14T07:40:18;61.15;;;6.90;;
56477;SDS011;42382;53.210;5.772;2024-02-14T07:42:45;59.15;;;5.93;;
56477;SDS011;42382;53.210;5.772;2024-02-14T07:45:11;47.25;;;6.20;;
56477;SDS011;42382;53.210;5.772;2024-02-14T07:47:37;51.17;;;6.55;;
56477;SDS011;42382;53.210;5.772;2024-02-14T07:50:05;54.28;;;5.75;;
56477;SDS011;42382;53.210;5.772;2024-02-14T07:52:31;59.67;;;6.18;;
56477;SDS011;42382;53.210;5.772;2024-02-14T07:54:57;57.53;;;6.70;;
56477;SDS011;42382;53.210;5.772;2024-02-14T07:57:22;62.65;;;6.47;;
56477;SDS011;42382;53.210;5.772;2024-02-14T07:59:49;49.55;;;6.32;;
56477;SDS011;42382;53.210;5.772;2024-02-14T08:02:16;56.92;;;7.03;;
56477;SDS011;42382;53.210;5.772;2024-02-14T08:04:42;49.90;;;7.10;;
56477;SDS011;42382;53.210;5.772;2024-02-14T08:07:08;54.97;;;7.25;;
56477;SDS011;42382;53.210;5.772;2024-02-14T08:09:34;59.28;;;8.95;;
56477;SDS011;42382;53.210;5.772;2024-02-14T08:12:00;52.55;;;7.57;;
56477;SDS011;42382;53.210;5.772;2024-02-14T08:14:26;61.95;;;8.02;;
56477;SDS011;42382;53.210;5.772;2024-02-14T08:16:52;52.13;;;7.03;;
56477;SDS011;42382;53.210;5.772;2024-02-14T08:19:17;47.22;;;7.10;;
56477;SDS011;42382;53.210;5.772;2024-02-14T08:21:44;61.30;;;7.97;;
56477;SDS011;42382;53.210;5.772;2024-02-14T08:24:10;53.08;;;8.07;;
56477;SDS011;42382;53.210;5.772;2024-02-14T08:26:35;59.22;;;8.43;;
56477;SDS011;42382;53.210;5.772;2024-02-14T08:29:01;46.92;;;7.18;;
56477;SDS011;42382;53.210;5.772;2024-02-14T08:31:27;57.90;;;7.80;;
56477;SDS011;42382;53.210;5.772;2024-02-14T08:33:55;52.95;;;7.07;;
56477;SDS011;42382;53.210;5.772;2024-02-14T08:36:21;42.75;;;7.47;;
56477;SDS011;42382;53.210;5.772;2024-02-14T08:38:47;46.30;;;7.55;;
56477;SDS011;42382;53.210;5.772;2024-02-14T08:41:12;70.13;;;9.23;;
56477;SDS011;42382;53.210;5.772;2024-02-14T08:43:39;48.72;;;8.23;;
56477;SDS011;42382;53.210;5.772;2024-02-14T08:46:08;59.22;;;7.75;;
56477;SDS011;42382;53.210;5.772;2024-02-14T08:48:35;46.63;;;8.02;;
56477;SDS011;42382;53.210;5.772;2024-02-14T08:51:08;59.20;;;8.27;;
56477;SDS011;42382;53.210;5.772;2024-02-14T08:53:35;46.72;;;8.05;;
56477;SDS011;42382;53.210;5.772;2024-02-14T08:56:01;54.60;;;7.45;;
56477;SDS011;42382;53.210;5.772;2024-02-14T08:58:27;61.03;;;9.38;;
56477;SDS011;42382;53.210;5.772;2024-02-14T09:00:52;50.92;;;7.75;;
56477;SDS011;42382;53.210;5.772;2024-02-14T09:03:18;49.50;;;8.43;;
56477;SDS011;42382;53.210;5.772;2024-02-14T09:05:44;41.45;;;8.18;;
56477;SDS011;42382;53.210;5.772;2024-02-14T09:08:11;45.90;;;7.82;;
56477;SDS011;42382;53.210;5.772;2024-02-14T09:10:37;47.05;;;8.30;;
56477;SDS011;42382;53.210;5.772;2024-02-14T09:13:03;48.08;;;7.78;;
56477;SDS011;42382;53.210;5.772;2024-02-14T09:15:29;41.80;;;6.85;;
56477;SDS011;42382;53.210;5.772;2024-02-14T09:17:56;55.72;;;9.00;;
56477;SDS011;42382;53.210;5.772;2024-02-14T09:20:22;49.22;;;7.65;;
56477;SDS011;42382;53.210;5.772;2024-02-14T09:22:48;45.28;;;8.35;;
56477;SDS011;42382;53.210;5.772;2024-02-14T09:25:13;50.97;;;6.80;;
56477;SDS011;42382;53.210;5.772;2024-02-14T09:27:39;40.90;;;7.32;;
56477;SDS011;42382;53.210;5.772;2024-02-14T09:30:06;38.53;;;6.43;;
56477;SDS011;42382;53.210;5.772;2024-02-14T09:32:32;50.53;;;8.38;;
56477;SDS011;42382;53.210;5.772;2024-02-14T09:35:02;41.78;;;7.07;;
56477;SDS011;42382;53.210;5.772;2024-02-14T09:37:31;36.33;;;6.35;;
56477;SDS011;42382;53.210;5.772;2024-02-14T09:39:57;40.65;;;6.68;;
56477;SDS011;42382;53.210;5.772;2024-02-14T09:42:27;38.55;;;7.05;;
56477;SDS011;42382;53.210;5.772;2024-02-14T09:44:58;44.75;;;6.30;;
56477;SDS011;42382;53.210;5.772;2024-02-14T09:47:27;40.17;;;6.25;;
56477;SDS011;42382;53.210;5.772;2024-02-14T09:49:55;39.08;;;7.85;;
56477;SDS011;42382;53.210;5.772;2024-02-14T09:52:22;40.58;;;7.38;;
56477;SDS011;42382;53.210;5.772;2024-02-14T09:54:48;33.35;;;7.68;;
56477;SDS011;42382;53.210;5.772;2024-02-14T09:57:16;36.40;;;7.45;;
56477;SDS011;42382;53.210;5.772;2024-02-14T09:59:42;38.97;;;7.88;;
56477;SDS011;42382;53.210;5.772;2024-02-14T10:02:09;30.88;;;7.47;;
56477;SDS011;42382;53.210;5.772;2024-02-14T10:04:35;31.17;;;6.70;;
56477;SDS011;42382;53.210;5.772;2024-02-14T10:07:02;49.25;;;9.23;;
56477;SDS011;42382;53.210;5.772;2024-02-14T10:09:39;38.13;;;7.30;;
56477;SDS011;42382;53.210;5.772;2024-02-14T10:12:06;34.03;;;7.65;;
56477;SDS011;42382;53.210;5.772;2024-02-14T10:14:34;32.50;;;6.93;;
56477;SDS011;42382;53.210;5.772;2024-02-14T10:17:01;36.13;;;8.15;;
56477;SDS011;42382;53.210;5.772;2024-02-14T10:19:28;22.45;;;6.07;;
56477;SDS011;42382;53.210;5.772;2024-02-14T10:22:00;23.00;;;5.63;;
56477;SDS011;42382;53.210;5.772;2024-02-14T10:24:29;27.65;;;6.32;;
56477;SDS011;42382;53.210;5.772;2024-02-14T10:26:55;23.40;;;5.72;;
56477;SDS011;42382;53.210;5.772;2024-02-14T10:29:22;33.53;;;6.20;;
56477;SDS011;42382;53.210;5.772;2024-02-14T10:31:49;38.33;;;7.60;;
56477;SDS011;42382;53.210;5.772;2024-02-14T10:34:15;30.23;;;6.32;;
56477;SDS011;42382;53.210;5.772;2024-02-14T10:36:42;34.65;;;6.72;;
56477;SDS011;42382;53.210;5.772;2024-02-14T10:39:09;39.67;;;6.85;;
56477;SDS011;42382;53.210;5.772;2024-02-14T10:41:40;32.78;;;7.22;;
56477;SDS011;42382;53.210;5.772;2024-02-14T10:44:06;29.40;;;6.00;;
56477;SDS011;42382;53.210;5.772;2024-02-14T10:46:38;38.50;;;5.90;;
56477;SDS011;42382;53.210;5.772;2024-02-14T10:49:06;28.63;;;5.57;;
56477;SDS011;42382;53.210;5.772;2024-02-14T10:51:36;30.83;;;6.38;;
56477;SDS011;42382;53.210;5.772;2024-02-14T10:54:04;30.45;;;7.25;;
56477;SDS011;42382;53.210;5.772;2024-02-14T10:56:35;30.05;;;5.95;;
56477;SDS011;42382;53.210;5.772;2024-02-14T10:59:05;37.50;;;6.68;;
56477;SDS011;42382;53.210;5.772;2024-02-14T11:01:32;24.02;;;5.13;;
56477;SDS011;42382;53.210;5.772;2024-02-14T11:04:00;27.40;;;6.07;;
56477;SDS011;42382;53.210;5.772;2024-02-14T11:06:27;29.67;;;6.07;;
56477;SDS011;42382;53.210;5.772;2024-02-14T11:08:58;25.40;;;5.65;;
56477;SDS011;42382;53.210;5.772;2024-02-14T11:11:32;21.80;;;5.35;;
56477;SDS011;42382;53.210;5.772;2024-02-14T11:13:58;25.30;;;5.95;;
56477;SDS011;42382;53.210;5.772;2024-02-14T11:16:27;23.23;;;6.35;;
56477;SDS011;42382;53.210;5.772;2024-02-14T11:18:54;30.45;;;5.65;;
56477;SDS011;42382;53.210;5.772;2024-02-14T11:21:34;37.40;;;6.93;;
56477;SDS011;42382;53.210;5.772;2024-02-14T11:24:05;30.70;;;6.82;;
56477;SDS011;42382;53.210;5.772;2024-02-14T11:29:17;30.30;;;6.18;;
56477;SDS011;42382;53.210;5.772;2024-02-14T11:31:47;33.03;;;6.30;;
56477;SDS011;42382;53.210;5.772;2024-02-14T11:34:16;35.92;;;5.45;;
56477;SDS011;42382;53.210;5.772;2024-02-14T11:36:42;32.83;;;5.85;;
56477;SDS011;42382;53.210;5.772;2024-02-14T11:39:11;23.70;;;5.68;;
56477;SDS011;42382;53.210;5.772;2024-02-14T11:41:39;27.45;;;5.45;;
56477;SDS011;42382;53.210;5.772;2024-02-14T11:44:07;20.00;;;3.80;;
56477;SDS011;42382;53.210;5.772;2024-02-14T11:46:33;14.77;;;3.40;;
56477;SDS011;42382;53.210;5.772;2024-02-14T11:49:01;19.42;;;3.95;;
56477;SDS011;42382;53.210;5.772;2024-02-14T11:51:29;22.67;;;4.70;;
56477;SDS011;42382;53.210;5.772;2024-02-14T11:53:57;18.17;;;4.72;;
56477;SDS011;42382;53.210;5.772;2024-02-14T11:56:30;17.55;;;3.60;;
56477;SDS011;42382;53.210;5.772;2024-02-14T11:59:00;20.67;;;4.50;;
56477;SDS011;42382;53.210;5.772;2024-02-14T12:01:36;14.75;;;4.38;;
56477;SDS011;42382;53.210;5.772;2024-02-14T12:04:04;20.55;;;4.55;;
56477;SDS011;42382;53.210;5.772;2024-02-14T12:06:33;17.95;;;5.25;;
56477;SDS011;42382;53.210;5.772;2024-02-14T12:09:02;22.88;;;6.28;;
56477;SDS011;42382;53.210;5.772;2024-02-14T12:11:34;18.88;;;6.07;;
56477;SDS011;42382;53.210;5.772;2024-02-14T12:14:07;18.48;;;6.30;;
56477;SDS011;42382;53.210;5.772;2024-02-14T12:16:34;23.83;;;7.70;;
56477;SDS011;42382;53.210;5.772;2024-02-14T12:19:08;18.15;;;7.35;;
56477;SDS011;42382;53.210;5.772;2024-02-14T12:21:40;27.23;;;7.95;;
56477;SDS011;42382;53.210;5.772;2024-02-14T12:24:07;19.88;;;7.25;;
56477;SDS011;42382;53.210;5.772;2024-02-14T12:26:33;24.67;;;7.97;;
56477;SDS011;42382;53.210;5.772;2024-02-14T12:29:01;17.08;;;7.78;;
56477;SDS011;42382;53.210;5.772;2024-02-14T12:31:28;22.00;;;8.23;;
56477;SDS011;42382;53.210;5.772;2024-02-14T12:33:56;25.58;;;9.13;;
56477;SDS011;42382;53.210;5.772;2024-02-14T12:36:27;21.98;;;8.32;;
56477;SDS011;42382;53.210;5.772;2024-02-14T12:38:59;25.15;;;9.30;;
56477;SDS011;42382;53.210;5.772;2024-02-14T12:41:28;21.90;;;8.35;;
56477;SDS011;42382;53.210;5.772;2024-02-14T12:43:57;23.48;;;7.85;;
56477;SDS011;42382;53.210;5.772;2024-02-14T12:46:24;20.27;;;7.90;;
56477;SDS011;42382;53.210;5.772;2024-02-14T12:48:49;26.30;;;8.20;;
56477;SDS011;42382;53.210;5.772;2024-02-14T12:51:15;25.38;;;7.88;;
56477;SDS011;42382;53.210;5.772;2024-02-14T12:53:41;21.33;;;7.10;;
56477;SDS011;42382;53.210;5.772;2024-02-14T12:56:07;20.48;;;6.80;;
56477;SDS011;42382;53.210;5.772;2024-02-14T12:58:33;23.55;;;7.57;;
56477;SDS011;42382;53.210;5.772;2024-02-14T13:00:59;19.40;;;7.43;;
56477;SDS011;42382;53.210;5.772;2024-02-14T13:03:26;24.02;;;7.93;;
56477;SDS011;42382;53.210;5.772;2024-02-14T13:05:52;19.90;;;7.43;;
56477;SDS011;42382;53.210;5.772;2024-02-14T13:08:20;24.90;;;8.23;;
56477;SDS011;42382;53.210;5.772;2024-02-14T13:10:46;21.20;;;7.30;;
56477;SDS011;42382;53.210;5.772;2024-02-14T13:13:12;28.17;;;7.28;;
56477;SDS011;42382;53.210;5.772;2024-02-14T13:15:39;20.50;;;6.07;;
56477;SDS011;42382;53.210;5.772;2024-02-14T13:18:05;21.23;;;6.53;;
56477;SDS011;42382;53.210;5.772;2024-02-14T13:20:31;20.55;;;6.20;;
56477;SDS011;42382;53.210;5.772;2024-02-14T13:22:57;20.00;;;6.22;;
56477;SDS011;42382;53.210;5.772;2024-02-14T13:25:23;18.17;;;6.53;;
56477;SDS011;42382;53.210;5.772;2024-02-14T13:27:48;23.23;;;7.38;;
56477;SDS011;42382;53.210;5.772;2024-02-14T13:30:14;21.60;;;6.10;;
56477;SDS011;42382;53.210;5.772;2024-02-14T13:32:40;20.10;;;5.95;;
56477;SDS011;42382;53.210;5.772;2024-02-14T13:35:05;15.50;;;6.20;;
56477;SDS011;42382;53.210;5.772;2024-02-14T13:37:33;18.95;;;6.53;;
56477;SDS011;42382;53.210;5.772;2024-02-14T13:39:59;17.40;;;5.85;;
56477;SDS011;42382;53.210;5.772;2024-02-14T13:42:24;12.32;;;5.05;;
56477;SDS011;42382;53.210;5.772;2024-02-14T13:44:50;18.30;;;5.22;;
56477;SDS011;42382;53.210;5.772;2024-02-14T13:47:18;13.10;;;4.97;;
56477;SDS011;42382;53.210;5.772;2024-02-14T13:49:44;12.10;;;4.32;;
56477;SDS011;42382;53.210;5.772;2024-02-14T13:52:10;11.23;;;4.20;;
56477;SDS011;42382;53.210;5.772;2024-02-14T13:54:35;10.55;;;4.13;;
56477;SDS011;42382;53.210;5.772;2024-02-14T13:57:01;7.90;;;3.33;;
56477;SDS011;42382;53.210;5.772;2024-02-14T13:59:27;6.28;;;3.47;;
56477;SDS011;42382;53.210;5.772;2024-02-14T14:01:53;9.43;;;3.90;;
56477;SDS011;42382;53.210;5.772;2024-02-14T14:04:19;9.25;;;3.75;;
56477;SDS011;42382;53.210;5.772;2024-02-14T14:06:46;7.18;;;3.20;;
56477;SDS011;42382;53.210;5.772;2024-02-14T14:09:13;9.20;;;3.80;;
56477;SDS011;42382;53.210;5.772;2024-02-14T14:11:39;7.97;;;4.28;;
56477;SDS011;42382;53.210;5.772;2024-02-14T14:14:05;6.63;;;3.30;;
56477;SDS011;42382;53.210;5.772;2024-02-14T14:16:33;6.68;;;3.60;;
56477;SDS011;42382;53.210;5.772;2024-02-14T14:18:58;6.10;;;3.65;;
56477;SDS011;42382;53.210;5.772;2024-02-14T14:21:24;9.02;;;4.18;;
56477;SDS011;42382;53.210;5.772;2024-02-14T14:23:50;12.00;;;5.00;;
56477;SDS011;42382;53.210;5.772;2024-02-14T14:26:15;11.10;;;4.25;;
56477;SDS011;42382;53.210;5.772;2024-02-14T14:28:41;11.00;;;5.05;;
56477;SDS011;42382;53.210;5.772;2024-02-14T14:31:07;13.07;;;5.70;;
56477;SDS011;42382;53.210;5.772;2024-02-14T14:33:36;17.10;;;6.38;;